sensor_id;sensor_type;location;lat;lon;timestamp;P1;durP1;ratioP1;P2;durP2;ratioP2
27802;SDS011;15182;48.174;11.562;2023-06-24T00:01:38;3.45;;;3.08;;
27802;SDS011;15182;48.174;11.562;2023-06-24T00:04:08;2.97;;;2.88;;
27802;SDS011;15182;48.174;11.562;2023-06-24T00:06:35;4.00;;;2.67;;
27802;SDS011;15182;48.174;11.562;2023-06-24T00:09:05;3.35;;;3.00;;
27802;SDS011;15182;48.174;11.562;2023-06-24T00:11:33;3.42;;;3.22;;
27802;SDS011;15182;48.174;11.562;2023-06-24T00:14:01;3.03;;;2.92;;
27802;SDS011;15182;48.174;11.562;2023-06-24T00:16:29;2.63;;;2.63;;
27802;SDS011;15182;48.174;11.562;2023-06-24T00:18:57;2.97;;;2.92;;
27802;SDS011;15182;48.174;11.562;2023-06-24T00:21:27;2.95;;;2.85;;
27802;SDS011;15182;48.174;11.562;2023-06-24T00:23:57;2.78;;;2.67;;
27802;SDS011;15182;48.174;11.562;2023-06-24T00:26:30;2.83;;;2.80;;
27802;SDS011;15182;48.174;11.562;2023-06-24T00:28:58;2.90;;;2.80;;
27802;SDS011;15182;48.174;11.562;2023-06-24T00:31:26;2.70;;;2.60;;
27802;SDS011;15182;48.174;11.562;2023-06-24T00:33:54;2.63;;;2.63;;
27802;SDS011;15182;48.174;11.562;2023-06-24T00:36:22;3.00;;;2.90;;
27802;SDS011;15182;48.174;11.562;2023-06-24T00:38:54;2.88;;;2.78;;
27802;SDS011;15182;48.174;11.562;2023-06-24T00:41:22;2.78;;;2.67;;
27802;SDS011;15182;48.174;11.562;2023-06-24T00:43:52;2.78;;;2.58;;
27802;SDS011;15182;48.174;11.562;2023-06-24T00:46:23;2.83;;;2.83;;
27802;SDS011;15182;48.174;11.562;2023-06-24T00:48:54;2.50;;;2.50;;
27802;SDS011;15182;48.174;11.562;2023-06-24T00:51:25;2.88;;;2.78;;
27802;SDS011;15182;48.174;11.562;2023-06-24T00:53:56;2.55;;;2.50;;
27802;SDS011;15182;48.174;11.562;2023-06-24T00:56:25;2.72;;;2.63;;
27802;SDS011;15182;48.174;11.562;2023-06-24T00:58:56;2.60;;;2.60;;
27802;SDS011;15182;48.174;11.562;2023-06-24T01:01:27;2.90;;;2.90;;
27802;SDS011;15182;48.174;11.562;2023-06-24T01:03:57;2.60;;;2.60;;
27802;SDS011;15182;48.174;11.562;2023-06-24T01:06:26;3.08;;;2.97;;
27802;SDS011;15182;48.174;11.562;2023-06-24T01:08:57;2.90;;;2.80;;
27802;SDS011;15182;48.174;11.562;2023-06-24T01:11:26;2.88;;;2.78;;
27802;SDS011;15182;48.174;11.562;2023-06-24T01:13:54;2.78;;;2.70;;
27802;SDS011;15182;48.174;11.562;2023-06-24T01:16:25;2.83;;;2.50;;
27802;SDS011;15182;48.174;11.562;2023-06-24T01:19:03;3.10;;;3.00;;
27802;SDS011;15182;48.174;11.562;2023-06-24T01:21:54;3.03;;;2.92;;
27802;SDS011;15182;48.174;11.562;2023-06-24T01:24:37;2.90;;;2.80;;
27802;SDS011;15182;48.174;11.562;2023-06-24T01:27:29;3.25;;;3.13;;
27802;SDS011;15182;48.174;11.562;2023-06-24T01:30:25;2.92;;;2.83;;
27802;SDS011;15182;48.174;11.562;2023-06-24T01:33:22;2.50;;;2.40;;
27802;SDS011;15182;48.174;11.562;2023-06-24T01:35:57;2.55;;;2.55;;
27802;SDS011;15182;48.174;11.562;2023-06-24T01:38:29;2.80;;;2.72;;
27802;SDS011;15182;48.174;11.562;2023-06-24T01:41:03;3.00;;;2.95;;
27802;SDS011;15182;48.174;11.562;2023-06-24T01:43:33;2.55;;;2.55;;
27802;SDS011;15182;48.174;11.562;2023-06-24T01:46:03;3.05;;;2.58;;
27802;SDS011;15182;48.174;11.562;2023-06-24T01:48:35;2.80;;;2.70;;
27802;SDS011;15182;48.174;11.562;2023-06-24T01:51:06;2.70;;;2.60;;
27802;SDS011;15182;48.174;11.562;2023-06-24T01:53:39;2.75;;;2.75;;
27802;SDS011;15182;48.174;11.562;2023-06-24T01:56:10;2.58;;;2.58;;
27802;SDS011;15182;48.174;11.562;2023-06-24T01:58:41;2.78;;;2.70;;
27802;SDS011;15182;48.174;11.562;2023-06-24T02:01:12;3.15;;;2.95;;
27802;SDS011;15182;48.174;11.562;2023-06-24T02:03:42;2.95;;;2.85;;
27802;SDS011;15182;48.174;11.562;2023-06-24T02:06:10;3.03;;;2.92;;
27802;SDS011;15182;48.174;11.562;2023-06-24T02:08:41;2.67;;;2.58;;
27802;SDS011;15182;48.174;11.562;2023-06-24T02:11:10;2.63;;;2.53;;
27802;SDS011;15182;48.174;11.562;2023-06-24T02:13:40;2.78;;;2.63;;
27802;SDS011;15182;48.174;11.562;2023-06-24T02:16:15;2.60;;;2.50;;
27802;SDS011;15182;48.174;11.562;2023-06-24T02:18:45;2.92;;;2.72;;
27802;SDS011;15182;48.174;11.562;2023-06-24T02:21:13;2.75;;;2.72;;
27802;SDS011;15182;48.174;11.562;2023-06-24T02:23:45;2.92;;;2.80;;
27802;SDS011;15182;48.174;11.562;2023-06-24T02:26:14;3.03;;;2.92;;
27802;SDS011;15182;48.174;11.562;2023-06-24T02:28:43;2.65;;;2.60;;
27802;SDS011;15182;48.174;11.562;2023-06-24T02:31:12;2.95;;;2.78;;
27802;SDS011;15182;48.174;11.562;2023-06-24T02:33:41;2.88;;;2.85;;
27802;SDS011;15182;48.174;11.562;2023-06-24T02:36:11;2.30;;;2.30;;
27802;SDS011;15182;48.174;11.562;2023-06-24T02:38:38;3.20;;;2.85;;
27802;SDS011;15182;48.174;11.562;2023-06-24T02:41:06;2.65;;;2.55;;
27802;SDS011;15182;48.174;11.562;2023-06-24T02:43:34;2.78;;;2.70;;
27802;SDS011;15182;48.174;11.562;2023-06-24T02:46:03;2.90;;;2.80;;
27802;SDS011;15182;48.174;11.562;2023-06-24T02:48:33;2.97;;;2.88;;
27802;SDS011;15182;48.174;11.562;2023-06-24T02:51:04;2.80;;;2.80;;
27802;SDS011;15182;48.174;11.562;2023-06-24T02:53:35;3.00;;;2.90;;
27802;SDS011;15182;48.174;11.562;2023-06-24T02:56:04;2.67;;;2.67;;
27802;SDS011;15182;48.174;11.562;2023-06-24T02:58:35;2.75;;;2.65;;
27802;SDS011;15182;48.174;11.562;2023-06-24T03:01:09;2.85;;;2.75;;
27802;SDS011;15182;48.174;11.562;2023-06-24T03:03:48;2.22;;;2.22;;
27802;SDS011;15182;48.174;11.562;2023-06-24T03:06:17;2.95;;;2.75;;
27802;SDS011;15182;48.174;11.562;2023-06-24T03:08:48;3.10;;;3.00;;
27802;SDS011;15182;48.174;11.562;2023-06-24T03:11:19;2.50;;;2.50;;
27802;SDS011;15182;48.174;11.562;2023-06-24T03:13:47;2.75;;;2.75;;
27802;SDS011;15182;48.174;11.562;2023-06-24T03:16:25;2.67;;;2.58;;
27802;SDS011;15182;48.174;11.562;2023-06-24T03:19:12;2.75;;;2.65;;
27802;SDS011;15182;48.174;11.562;2023-06-24T03:21:41;2.67;;;2.58;;
27802;SDS011;15182;48.174;11.562;2023-06-24T03:24:13;2.90;;;2.80;;
27802;SDS011;15182;48.174;11.562;2023-06-24T03:26:43;2.75;;;2.70;;
27802;SDS011;15182;48.174;11.562;2023-06-24T03:29:13;2.67;;;2.67;;
27802;SDS011;15182;48.174;11.562;2023-06-24T03:31:56;3.00;;;2.90;;
27802;SDS011;15182;48.174;11.562;2023-06-24T03:34:26;2.63;;;2.63;;
27802;SDS011;15182;48.174;11.562;2023-06-24T03:36:54;2.63;;;2.60;;
27802;SDS011;15182;48.174;11.562;2023-06-24T03:39:24;2.63;;;2.63;;
27802;SDS011;15182;48.174;11.562;2023-06-24T03:41:52;2.92;;;2.83;;
27802;SDS011;15182;48.174;11.562;2023-06-24T03:44:21;4.88;;;2.58;;
27802;SDS011;15182;48.174;11.562;2023-06-24T03:46:49;2.50;;;2.50;;
27802;SDS011;15182;48.174;11.562;2023-06-24T03:49:17;2.35;;;2.35;;
27802;SDS011;15182;48.174;11.562;2023-06-24T03:51:44;2.53;;;2.33;;
27802;SDS011;15182;48.174;11.562;2023-06-24T03:54:12;2.33;;;2.33;;
27802;SDS011;15182;48.174;11.562;2023-06-24T03:56:42;3.40;;;3.30;;
27802;SDS011;15182;48.174;11.562;2023-06-24T03:59:09;2.90;;;2.72;;
27802;SDS011;15182;48.174;11.562;2023-06-24T04:01:38;2.58;;;2.47;;
27802;SDS011;15182;48.174;11.562;2023-06-24T04:04:06;2.83;;;2.65;;
27802;SDS011;15182;48.174;11.562;2023-06-24T04:06:34;2.72;;;2.72;;
27802;SDS011;15182;48.174;11.562;2023-06-24T04:09:01;2.85;;;2.75;;
27802;SDS011;15182;48.174;11.562;2023-06-24T04:11:29;2.85;;;2.83;;
27802;SDS011;15182;48.174;11.562;2023-06-24T04:14:01;3.10;;;2.90;;
27802;SDS011;15182;48.174;11.562;2023-06-24T04:16:32;3.00;;;2.90;;
27802;SDS011;15182;48.174;11.562;2023-06-24T04:19:01;3.20;;;3.00;;
27802;SDS011;15182;48.174;11.562;2023-06-24T04:21:29;2.80;;;2.70;;
27802;SDS011;15182;48.174;11.562;2023-06-24T04:23:57;2.95;;;2.85;;
27802;SDS011;15182;48.174;11.562;2023-06-24T04:26:25;2.97;;;2.88;;
27802;SDS011;15182;48.174;11.562;2023-06-24T04:28:53;3.03;;;2.80;;
27802;SDS011;15182;48.174;11.562;2023-06-24T04:31:23;2.60;;;2.60;;
27802;SDS011;15182;48.174;11.562;2023-06-24T04:33:51;2.70;;;2.70;;
27802;SDS011;15182;48.174;11.562;2023-06-24T04:36:19;2.70;;;2.70;;
27802;SDS011;15182;48.174;11.562;2023-06-24T04:38:47;2.70;;;2.60;;
27802;SDS011;15182;48.174;11.562;2023-06-24T04:41:15;2.88;;;2.78;;
27802;SDS011;15182;48.174;11.562;2023-06-24T04:43:44;3.05;;;2.80;;
27802;SDS011;15182;48.174;11.562;2023-06-24T04:46:12;2.92;;;2.83;;
27802;SDS011;15182;48.174;11.562;2023-06-24T04:48:41;2.65;;;2.58;;
27802;SDS011;15182;48.174;11.562;2023-06-24T04:51:08;2.55;;;2.55;;
27802;SDS011;15182;48.174;11.562;2023-06-24T04:53:36;2.40;;;2.30;;
27802;SDS011;15182;48.174;11.562;2023-06-24T04:56:04;3.40;;;3.20;;
27802;SDS011;15182;48.174;11.562;2023-06-24T04:58:32;3.13;;;2.92;;
27802;SDS011;15182;48.174;11.562;2023-06-24T05:01:00;3.38;;;2.97;;
27802;SDS011;15182;48.174;11.562;2023-06-24T05:03:27;2.83;;;2.72;;
27802;SDS011;15182;48.174;11.562;2023-06-24T05:05:57;2.78;;;2.67;;
27802;SDS011;15182;48.174;11.562;2023-06-24T05:08:24;2.80;;;2.70;;
27802;SDS011;15182;48.174;11.562;2023-06-24T05:10:52;3.78;;;2.67;;
27802;SDS011;15182;48.174;11.562;2023-06-24T05:13:20;2.85;;;2.80;;
27802;SDS011;15182;48.174;11.562;2023-06-24T05:15:48;3.30;;;3.03;;
27802;SDS011;15182;48.174;11.562;2023-06-24T05:18:15;2.90;;;2.80;;
27802;SDS011;15182;48.174;11.562;2023-06-24T05:20:43;2.97;;;2.88;;
27802;SDS011;15182;48.174;11.562;2023-06-24T05:23:12;2.90;;;2.80;;
27802;SDS011;15182;48.174;11.562;2023-06-24T05:25:40;3.25;;;3.15;;
27802;SDS011;15182;48.174;11.562;2023-06-24T05:28:08;3.03;;;2.83;;
27802;SDS011;15182;48.174;11.562;2023-06-24T05:30:36;2.78;;;2.67;;
27802;SDS011;15182;48.174;11.562;2023-06-24T05:33:04;2.95;;;2.85;;
27802;SDS011;15182;48.174;11.562;2023-06-24T05:35:32;2.78;;;2.78;;
27802;SDS011;15182;48.174;11.562;2023-06-24T05:38:07;2.90;;;2.90;;
27802;SDS011;15182;48.174;11.562;2023-06-24T05:40:37;3.00;;;2.90;;
27802;SDS011;15182;48.174;11.562;2023-06-24T05:43:04;2.58;;;2.58;;
27802;SDS011;15182;48.174;11.562;2023-06-24T05:45:32;2.90;;;2.70;;
27802;SDS011;15182;48.174;11.562;2023-06-24T05:48:00;2.58;;;2.55;;
27802;SDS011;15182;48.174;11.562;2023-06-24T05:50:29;2.83;;;2.72;;
27802;SDS011;15182;48.174;11.562;2023-06-24T05:52:57;2.85;;;2.47;;
27802;SDS011;15182;48.174;11.562;2023-06-24T05:55:25;2.80;;;2.70;;
27802;SDS011;15182;48.174;11.562;2023-06-24T05:57:54;2.40;;;2.40;;
27802;SDS011;15182;48.174;11.562;2023-06-24T06:00:22;2.72;;;2.72;;
27802;SDS011;15182;48.174;11.562;2023-06-24T06:02:50;2.85;;;2.85;;
27802;SDS011;15182;48.174;11.562;2023-06-24T06:05:18;3.08;;;2.97;;
27802;SDS011;15182;48.174;11.562;2023-06-24T06:07:46;3.22;;;3.13;;
27802;SDS011;15182;48.174;11.562;2023-06-24T06:10:14;2.25;;;2.25;;
27802;SDS011;15182;48.174;11.562;2023-06-24T06:12:43;2.58;;;2.58;;
27802;SDS011;15182;48.174;11.562;2023-06-24T06:15:12;2.70;;;2.60;;
27802;SDS011;15182;48.174;11.562;2023-06-24T06:17:40;3.10;;;3.00;;
27802;SDS011;15182;48.174;11.562;2023-06-24T06:20:08;3.08;;;2.97;;
27802;SDS011;15182;48.174;11.562;2023-06-24T06:22:37;2.80;;;2.70;;
27802;SDS011;15182;48.174;11.562;2023-06-24T06:25:05;2.90;;;2.80;;
27802;SDS011;15182;48.174;11.562;2023-06-24T06:27:33;3.10;;;2.97;;
27802;SDS011;15182;48.174;11.562;2023-06-24T06:30:01;2.80;;;2.70;;
27802;SDS011;15182;48.174;11.562;2023-06-24T06:32:32;2.47;;;2.47;;
27802;SDS011;15182;48.174;11.562;2023-06-24T06:34:59;2.70;;;2.70;;
27802;SDS011;15182;48.174;11.562;2023-06-24T06:37:27;3.03;;;2.92;;
27802;SDS011;15182;48.174;11.562;2023-06-24T06:39:55;2.45;;;2.40;;
27802;SDS011;15182;48.174;11.562;2023-06-24T06:42:23;3.00;;;2.90;;
27802;SDS011;15182;48.174;11.562;2023-06-24T06:44:51;2.80;;;2.70;;
27802;SDS011;15182;48.174;11.562;2023-06-24T06:47:18;5.07;;;2.67;;
27802;SDS011;15182;48.174;11.562;2023-06-24T06:49:47;2.72;;;2.60;;
27802;SDS011;15182;48.174;11.562;2023-06-24T06:52:15;2.15;;;2.15;;
27802;SDS011;15182;48.174;11.562;2023-06-24T06:54:43;2.38;;;2.28;;
27802;SDS011;15182;48.174;11.562;2023-06-24T06:57:11;2.28;;;2.28;;
27802;SDS011;15182;48.174;11.562;2023-06-24T06:59:39;2.53;;;2.42;;
27802;SDS011;15182;48.174;11.562;2023-06-24T07:02:06;2.30;;;2.20;;
27802;SDS011;15182;48.174;11.562;2023-06-24T07:04:34;2.13;;;2.03;;
27802;SDS011;15182;48.174;11.562;2023-06-24T07:07:03;2.38;;;2.25;;
27802;SDS011;15182;48.174;11.562;2023-06-24T07:09:32;2.10;;;2.10;;
27802;SDS011;15182;48.174;11.562;2023-06-24T07:11:59;2.88;;;2.72;;
27802;SDS011;15182;48.174;11.562;2023-06-24T07:14:28;2.40;;;2.40;;
27802;SDS011;15182;48.174;11.562;2023-06-24T07:16:55;2.40;;;2.30;;
27802;SDS011;15182;48.174;11.562;2023-06-24T07:19:23;2.30;;;2.30;;
27802;SDS011;15182;48.174;11.562;2023-06-24T07:21:51;3.10;;;2.47;;
27802;SDS011;15182;48.174;11.562;2023-06-24T07:24:20;2.10;;;2.10;;
27802;SDS011;15182;48.174;11.562;2023-06-24T07:26:48;2.28;;;2.28;;
27802;SDS011;15182;48.174;11.562;2023-06-24T07:29:16;2.35;;;2.30;;
27802;SDS011;15182;48.174;11.562;2023-06-24T07:31:44;2.92;;;2.83;;
27802;SDS011;15182;48.174;11.562;2023-06-24T07:34:12;2.83;;;2.72;;
27802;SDS011;15182;48.174;11.562;2023-06-24T07:36:40;2.35;;;2.35;;
27802;SDS011;15182;48.174;11.562;2023-06-24T07:39:07;2.25;;;2.25;;
27802;SDS011;15182;48.174;11.562;2023-06-24T07:41:37;2.60;;;2.50;;
27802;SDS011;15182;48.174;11.562;2023-06-24T07:44:04;2.83;;;2.80;;
27802;SDS011;15182;48.174;11.562;2023-06-24T07:46:32;2.58;;;2.40;;
27802;SDS011;15182;48.174;11.562;2023-06-24T07:49:00;2.17;;;2.17;;
27802;SDS011;15182;48.174;11.562;2023-06-24T07:51:28;2.80;;;2.70;;
27802;SDS011;15182;48.174;11.562;2023-06-24T07:53:56;2.85;;;2.80;;
27802;SDS011;15182;48.174;11.562;2023-06-24T07:56:23;2.75;;;2.65;;
27802;SDS011;15182;48.174;11.562;2023-06-24T07:58:53;2.60;;;2.50;;
27802;SDS011;15182;48.174;11.562;2023-06-24T08:01:21;2.65;;;2.55;;
27802;SDS011;15182;48.174;11.562;2023-06-24T08:03:48;2.72;;;2.63;;
27802;SDS011;15182;48.174;11.562;2023-06-24T08:06:16;2.50;;;2.50;;
27802;SDS011;15182;48.174;11.562;2023-06-24T08:08:44;2.60;;;2.60;;
27802;SDS011;15182;48.174;11.562;2023-06-24T08:11:13;2.72;;;2.72;;
27802;SDS011;15182;48.174;11.562;2023-06-24T08:13:41;2.53;;;2.53;;
27802;SDS011;15182;48.174;11.562;2023-06-24T08:16:14;31.58;;;3.47;;
27802;SDS011;15182;48.174;11.562;2023-06-24T08:18:44;2.97;;;2.78;;
27802;SDS011;15182;48.174;11.562;2023-06-24T08:21:12;2.67;;;2.58;;
27802;SDS011;15182;48.174;11.562;2023-06-24T08:23:39;2.58;;;2.47;;
27802;SDS011;15182;48.174;11.562;2023-06-24T08:26:07;2.80;;;2.80;;
27802;SDS011;15182;48.174;11.562;2023-06-24T08:28:35;2.50;;;2.50;;
27802;SDS011;15182;48.174;11.562;2023-06-24T08:31:03;2.90;;;2.80;;
27802;SDS011;15182;48.174;11.562;2023-06-24T08:33:32;2.70;;;2.70;;
27802;SDS011;15182;48.174;11.562;2023-06-24T08:36:00;2.65;;;2.60;;
27802;SDS011;15182;48.174;11.562;2023-06-24T08:38:28;2.85;;;2.75;;
27802;SDS011;15182;48.174;11.562;2023-06-24T08:40:56;3.33;;;3.22;;
27802;SDS011;15182;48.174;11.562;2023-06-24T08:43:23;3.25;;;3.15;;
27802;SDS011;15182;48.174;11.562;2023-06-24T08:45:51;3.10;;;3.00;;
27802;SDS011;15182;48.174;11.562;2023-06-24T08:48:20;3.00;;;2.90;;
27802;SDS011;15182;48.174;11.562;2023-06-24T08:50:50;3.20;;;3.10;;
27802;SDS011;15182;48.174;11.562;2023-06-24T08:53:22;2.97;;;2.88;;
27802;SDS011;15182;48.174;11.562;2023-06-24T08:55:53;3.33;;;3.22;;
27802;SDS011;15182;48.174;11.562;2023-06-24T08:58:21;3.08;;;2.97;;
27802;SDS011;15182;48.174;11.562;2023-06-24T09:00:49;3.05;;;2.95;;
27802;SDS011;15182;48.174;11.562;2023-06-24T09:03:17;3.15;;;3.05;;
27802;SDS011;15182;48.174;11.562;2023-06-24T09:05:45;3.13;;;2.95;;
27802;SDS011;15182;48.174;11.562;2023-06-24T09:08:15;2.88;;;2.88;;
27802;SDS011;15182;48.174;11.562;2023-06-24T09:10:44;3.08;;;2.97;;
27802;SDS011;15182;48.174;11.562;2023-06-24T09:13:11;3.53;;;3.42;;
27802;SDS011;15182;48.174;11.562;2023-06-24T09:15:39;3.13;;;3.13;;
27802;SDS011;15182;48.174;11.562;2023-06-24T09:18:07;3.85;;;3.60;;
27802;SDS011;15182;48.174;11.562;2023-06-24T09:20:37;2.97;;;2.97;;
27802;SDS011;15182;48.174;11.562;2023-06-24T09:23:10;3.25;;;3.13;;
27802;SDS011;15182;48.174;11.562;2023-06-24T09:25:39;3.70;;;3.60;;
27802;SDS011;15182;48.174;11.562;2023-06-24T09:28:07;3.78;;;3.63;;
27802;SDS011;15182;48.174;11.562;2023-06-24T09:30:35;3.15;;;3.05;;
27802;SDS011;15182;48.174;11.562;2023-06-24T09:33:03;3.58;;;3.33;;
27802;SDS011;15182;48.174;11.562;2023-06-24T09:35:33;3.50;;;3.40;;
27802;SDS011;15182;48.174;11.562;2023-06-24T09:38:03;3.42;;;3.22;;
27802;SDS011;15182;48.174;11.562;2023-06-24T09:40:31;3.47;;;3.33;;
27802;SDS011;15182;48.174;11.562;2023-06-24T09:43:04;3.20;;;3.10;;
27802;SDS011;15182;48.174;11.562;2023-06-24T09:45:32;3.53;;;3.42;;
27802;SDS011;15182;48.174;11.562;2023-06-24T09:48:00;3.70;;;3.50;;
27802;SDS011;15182;48.174;11.562;2023-06-24T09:50:28;3.65;;;3.47;;
27802;SDS011;15182;48.174;11.562;2023-06-24T09:52:57;3.75;;;3.65;;
27802;SDS011;15182;48.174;11.562;2023-06-24T09:55:26;3.47;;;3.38;;
27802;SDS011;15182;48.174;11.562;2023-06-24T09:57:55;3.28;;;3.17;;
27802;SDS011;15182;48.174;11.562;2023-06-24T10:00:24;3.85;;;3.72;;
27802;SDS011;15182;48.174;11.562;2023-06-24T10:02:53;3.33;;;3.22;;
27802;SDS011;15182;48.174;11.562;2023-06-24T10:05:22;3.58;;;3.35;;
27802;SDS011;15182;48.174;11.562;2023-06-24T10:07:50;3.67;;;3.58;;
27802;SDS011;15182;48.174;11.562;2023-06-24T10:10:18;3.45;;;3.35;;
27802;SDS011;15182;48.174;11.562;2023-06-24T10:12:46;3.50;;;3.40;;
27802;SDS011;15182;48.174;11.562;2023-06-24T10:15:14;3.30;;;3.20;;
27802;SDS011;15182;48.174;11.562;2023-06-24T10:17:43;3.50;;;3.40;;
27802;SDS011;15182;48.174;11.562;2023-06-24T10:20:12;3.70;;;3.60;;
27802;SDS011;15182;48.174;11.562;2023-06-24T10:22:51;3.63;;;3.53;;
27802;SDS011;15182;48.174;11.562;2023-06-24T10:25:19;3.35;;;3.25;;
27802;SDS011;15182;48.174;11.562;2023-06-24T10:27:50;3.50;;;3.40;;
27802;SDS011;15182;48.174;11.562;2023-06-24T10:30:21;3.40;;;3.30;;
27802;SDS011;15182;48.174;11.562;2023-06-24T10:32:52;3.42;;;3.33;;
27802;SDS011;15182;48.174;11.562;2023-06-24T10:35:21;3.20;;;3.10;;
27802;SDS011;15182;48.174;11.562;2023-06-24T10:37:54;3.83;;;3.72;;
27802;SDS011;15182;48.174;11.562;2023-06-24T10:40:36;3.50;;;3.30;;
27802;SDS011;15182;48.174;11.562;2023-06-24T10:45:54;3.03;;;2.92;;
27802;SDS011;15182;48.174;11.562;2023-06-24T10:48:25;3.00;;;2.90;;
27802;SDS011;15182;48.174;11.562;2023-06-24T10:50:53;3.10;;;3.00;;
27802;SDS011;15182;48.174;11.562;2023-06-24T10:53:21;3.60;;;3.40;;
27802;SDS011;15182;48.174;11.562;2023-06-24T10:55:49;4.68;;;2.80;;
27802;SDS011;15182;48.174;11.562;2023-06-24T10:58:17;3.00;;;2.90;;
27802;SDS011;15182;48.174;11.562;2023-06-24T11:00:45;2.92;;;2.92;;
27802;SDS011;15182;48.174;11.562;2023-06-24T11:03:14;3.17;;;3.08;;
27802;SDS011;15182;48.174;11.562;2023-06-24T11:05:45;3.10;;;3.00;;
27802;SDS011;15182;48.174;11.562;2023-06-24T11:08:15;3.13;;;3.03;;
27802;SDS011;15182;48.174;11.562;2023-06-24T11:10:43;3.13;;;2.92;;
27802;SDS011;15182;48.174;11.562;2023-06-24T11:13:12;2.72;;;2.70;;
27802;SDS011;15182;48.174;11.562;2023-06-24T11:15:40;2.67;;;2.67;;
27802;SDS011;15182;48.174;11.562;2023-06-24T11:18:08;3.03;;;3.03;;
27802;SDS011;15182;48.174;11.562;2023-06-24T11:20:37;3.05;;;3.05;;
27802;SDS011;15182;48.174;11.562;2023-06-24T11:23:08;3.45;;;3.15;;
27802;SDS011;15182;48.174;11.562;2023-06-24T11:25:40;3.08;;;3.00;;
27802;SDS011;15182;48.174;11.562;2023-06-24T11:28:13;2.95;;;2.88;;
27802;SDS011;15182;48.174;11.562;2023-06-24T11:30:43;3.47;;;3.38;;
27802;SDS011;15182;48.174;11.562;2023-06-24T11:33:11;3.17;;;3.08;;
27802;SDS011;15182;48.174;11.562;2023-06-24T11:35:38;3.10;;;2.90;;
27802;SDS011;15182;48.174;11.562;2023-06-24T11:38:08;2.55;;;2.55;;
27802;SDS011;15182;48.174;11.562;2023-06-24T11:40:36;2.83;;;2.83;;
27802;SDS011;15182;48.174;11.562;2023-06-24T11:43:04;2.97;;;2.88;;
27802;SDS011;15182;48.174;11.562;2023-06-24T11:45:31;2.72;;;2.63;;
27802;SDS011;15182;48.174;11.562;2023-06-24T11:48:02;2.88;;;2.78;;
27802;SDS011;15182;48.174;11.562;2023-06-24T11:50:35;2.92;;;2.80;;
27802;SDS011;15182;48.174;11.562;2023-06-24T11:53:04;2.70;;;2.60;;
27802;SDS011;15182;48.174;11.562;2023-06-24T11:55:33;3.05;;;2.97;;
27802;SDS011;15182;48.174;11.562;2023-06-24T11:58:01;3.10;;;3.00;;
27802;SDS011;15182;48.174;11.562;2023-06-24T12:00:31;3.05;;;2.95;;
27802;SDS011;15182;48.174;11.562;2023-06-24T12:03:03;2.70;;;2.70;;
27802;SDS011;15182;48.174;11.562;2023-06-24T12:05:32;3.05;;;2.95;;
27802;SDS011;15182;48.174;11.562;2023-06-24T12:08:02;3.25;;;3.15;;
27802;SDS011;15182;48.174;11.562;2023-06-24T12:10:34;3.03;;;2.83;;
27802;SDS011;15182;48.174;11.562;2023-06-24T12:13:03;2.72;;;2.63;;
27802;SDS011;15182;48.174;11.562;2023-06-24T12:15:34;3.30;;;3.15;;
27802;SDS011;15182;48.174;11.562;2023-06-24T12:18:02;3.05;;;2.95;;
27802;SDS011;15182;48.174;11.562;2023-06-24T12:20:31;3.45;;;3.25;;
27802;SDS011;15182;48.174;11.562;2023-06-24T12:23:00;3.15;;;2.80;;
27802;SDS011;15182;48.174;11.562;2023-06-24T12:25:29;3.38;;;3.28;;
27802;SDS011;15182;48.174;11.562;2023-06-24T12:27:58;3.17;;;3.08;;
27802;SDS011;15182;48.174;11.562;2023-06-24T12:30:26;3.13;;;3.03;;
27802;SDS011;15182;48.174;11.562;2023-06-24T12:32:54;2.78;;;2.65;;
27802;SDS011;15182;48.174;11.562;2023-06-24T12:35:22;2.95;;;2.92;;
27802;SDS011;15182;48.174;11.562;2023-06-24T12:37:51;3.33;;;3.22;;
27802;SDS011;15182;48.174;11.562;2023-06-24T12:40:19;3.15;;;3.05;;
27802;SDS011;15182;48.174;11.562;2023-06-24T12:42:47;3.22;;;3.13;;
27802;SDS011;15182;48.174;11.562;2023-06-24T12:45:16;3.13;;;3.03;;
27802;SDS011;15182;48.174;11.562;2023-06-24T12:47:44;3.40;;;3.30;;
27802;SDS011;15182;48.174;11.562;2023-06-24T12:50:12;3.08;;;3.08;;
27802;SDS011;15182;48.174;11.562;2023-06-24T12:52:39;3.30;;;3.20;;
27802;SDS011;15182;48.174;11.562;2023-06-24T12:55:07;3.40;;;3.30;;
27802;SDS011;15182;48.174;11.562;2023-06-24T12:57:36;3.08;;;2.97;;
27802;SDS011;15182;48.174;11.562;2023-06-24T13:00:04;3.75;;;3.45;;
27802;SDS011;15182;48.174;11.562;2023-06-24T13:02:35;3.22;;;3.13;;
27802;SDS011;15182;48.174;11.562;2023-06-24T13:05:04;3.17;;;3.08;;
27802;SDS011;15182;48.174;11.562;2023-06-24T13:07:32;2.83;;;2.72;;
27802;SDS011;15182;48.174;11.562;2023-06-24T13:10:00;3.38;;;3.15;;
27802;SDS011;15182;48.174;11.562;2023-06-24T13:12:31;2.92;;;2.83;;
27802;SDS011;15182;48.174;11.562;2023-06-24T13:14:59;3.40;;;3.30;;
27802;SDS011;15182;48.174;11.562;2023-06-24T13:17:27;3.38;;;3.13;;
27802;SDS011;15182;48.174;11.562;2023-06-24T13:19:57;3.40;;;3.22;;
27802;SDS011;15182;48.174;11.562;2023-06-24T13:22:24;3.42;;;3.22;;
27802;SDS011;15182;48.174;11.562;2023-06-24T13:24:52;2.83;;;2.83;;
27802;SDS011;15182;48.174;11.562;2023-06-24T13:27:20;3.55;;;3.28;;
27802;SDS011;15182;48.174;11.562;2023-06-24T13:29:47;2.90;;;2.83;;
27802;SDS011;15182;48.174;11.562;2023-06-24T13:32:15;3.10;;;3.00;;
27802;SDS011;15182;48.174;11.562;2023-06-24T13:34:43;2.70;;;2.70;;
27802;SDS011;15182;48.174;11.562;2023-06-24T13:37:12;3.10;;;3.00;;
27802;SDS011;15182;48.174;11.562;2023-06-24T13:39:40;3.10;;;3.00;;
27802;SDS011;15182;48.174;11.562;2023-06-24T13:42:08;3.13;;;3.03;;
27802;SDS011;15182;48.174;11.562;2023-06-24T13:44:36;3.28;;;3.17;;
27802;SDS011;15182;48.174;11.562;2023-06-24T13:47:04;3.55;;;3.35;;
27802;SDS011;15182;48.174;11.562;2023-06-24T13:49:33;3.13;;;3.03;;
27802;SDS011;15182;48.174;11.562;2023-06-24T13:52:01;3.50;;;3.35;;
27802;SDS011;15182;48.174;11.562;2023-06-24T13:54:30;3.17;;;3.13;;
27802;SDS011;15182;48.174;11.562;2023-06-24T13:57:01;2.95;;;2.85;;
27802;SDS011;15182;48.174;11.562;2023-06-24T13:59:29;3.17;;;3.13;;
27802;SDS011;15182;48.174;11.562;2023-06-24T14:01:56;3.13;;;3.03;;
27802;SDS011;15182;48.174;11.562;2023-06-24T14:04:24;3.00;;;2.95;;
27802;SDS011;15182;48.174;11.562;2023-06-24T14:06:52;3.22;;;3.10;;
27802;SDS011;15182;48.174;11.562;2023-06-24T14:09:22;3.00;;;3.00;;
27802;SDS011;15182;48.174;11.562;2023-06-24T14:11:51;3.35;;;3.25;;
27802;SDS011;15182;48.174;11.562;2023-06-24T14:14:19;3.72;;;3.53;;
27802;SDS011;15182;48.174;11.562;2023-06-24T14:16:46;3.38;;;3.28;;
27802;SDS011;15182;48.174;11.562;2023-06-24T14:19:14;3.33;;;3.22;;
27802;SDS011;15182;48.174;11.562;2023-06-24T14:21:42;3.38;;;3.10;;
27802;SDS011;15182;48.174;11.562;2023-06-24T14:24:10;2.85;;;2.83;;
27802;SDS011;15182;48.174;11.562;2023-06-24T14:26:38;3.20;;;3.05;;
27802;SDS011;15182;48.174;11.562;2023-06-24T14:29:07;3.45;;;3.35;;
27802;SDS011;15182;48.174;11.562;2023-06-24T14:31:35;2.85;;;2.75;;
27802;SDS011;15182;48.174;11.562;2023-06-24T14:34:02;3.10;;;3.00;;
27802;SDS011;15182;48.174;11.562;2023-06-24T14:36:30;3.28;;;3.17;;
27802;SDS011;15182;48.174;11.562;2023-06-24T14:38:58;3.80;;;3.50;;
27802;SDS011;15182;48.174;11.562;2023-06-24T14:41:26;3.60;;;3.50;;
27802;SDS011;15182;48.174;11.562;2023-06-24T14:43:53;3.20;;;3.10;;
27802;SDS011;15182;48.174;11.562;2023-06-24T14:46:23;3.55;;;3.22;;
27802;SDS011;15182;48.174;11.562;2023-06-24T14:48:50;3.40;;;3.22;;